Basse Lasne, Belgium
Current Conditions -  °F | °C
As of 1:25 PM on Thursday 30 Oct 2014 (Local Time) from EBBE Reporting Station
Broken Clouds Broken Clouds  
Wind Chill: 59°   Ceiling: 13000
Heat Index: 59°   Visibility: 5mi
Dew Point: 55°   Wind: 8mph
Humidity: 88%   Direction: 190°S
Pressure: 30.18"   Gusts: NA
Location:  50.7°N, 4.49°E
Report Text: EBBE 301225Z 19007KT 8000 SCT120 BKN130 15/13 Q1022 BLU BLU
Loading
Personal Weather Stations






























Interactive Weather Map
Tropical Storm Tracking
New forecast layout! Learn more

10-Day Weather Forecast

Advertisements
Track Severe Weather on mobile